Time;durP1;ratioP1;P1;durP2;ratioP2;P2;SDS_P1;SDS_P2;PMS_P1;PMS_P2;Temp;Humidity;BMP_temperature;BMP_pressure;BME280_temperature;BME280_humidity;BME280_pressure;Samples;Min_cycle;Max_cycle;Signal;HPM_P1;HPM_P2
2022/07/02 00:00:43;;;;;;;6.53;4.90;;;;;;;18.75;52.08;102049.09;5051172;28;20045;-65
2022/07/02 00:03:19;;;;;;;4.90;4.50;;;;;;;18.74;51.92;102052.81;5049848;28;20041;-64
2022/07/02 00:05:56;;;;;;;8.07;4.60;;;;;;;18.68;51.78;102051.50;5031062;28;20053;-65
2022/07/02 00:08:24;;;;;;;5.28;4.78;;;;;;;18.65;52.23;102050.91;5064932;28;20372;-65
2022/07/02 00:10:53;;;;;;;8.25;4.90;;;;;;;18.62;52.14;102054.75;5051064;28;20065;-65
2022/07/02 00:13:23;;;;;;;5.72;4.97;;;;;;;18.61;52.17;102058.47;5051070;28;20045;-65
2022/07/02 00:15:50;;;;;;;5.88;5.18;;;;;;;18.60;52.40;102058.56;5050909;28;20049;-65
2022/07/02 00:18:18;;;;;;;6.55;4.90;;;;;;;18.57;52.13;102051.50;5051129;28;20478;-65
2022/07/02 00:20:46;;;;;;;6.15;4.50;;;;;;;18.55;52.50;102050.75;5049688;28;20048;-65
2022/07/02 00:23:14;;;;;;;7.22;4.90;;;;;;;18.55;52.33;102047.16;5051034;28;20132;-65
2022/07/02 00:26:07;;;;;;;5.57;4.90;;;;;;;18.56;52.30;102057.06;5051003;28;20049;-65
2022/07/02 00:28:40;;;;;;;6.53;4.50;;;;;;;18.56;52.27;102048.91;5044245;28;20128;-65
2022/07/02 00:31:07;;;;;;;4.93;4.38;;;;;;;18.56;52.17;102048.91;5030962;28;20065;-65
2022/07/02 00:33:39;;;;;;;6.85;4.75;;;;;;;18.54;52.55;102054.47;5030866;28;20048;-65
2022/07/02 00:36:06;;;;;;;6.88;5.10;;;;;;;18.54;52.45;102057.19;5029889;28;20064;-65
2022/07/02 00:38:33;;;;;;;7.45;4.85;;;;;;;18.53;52.66;102049.16;5030611;28;20058;-65
2022/07/02 00:41:02;;;;;;;5.53;4.90;;;;;;;18.52;52.48;102052.88;5031988;28;20057;-66
2022/07/02 00:43:29;;;;;;;5.38;4.82;;;;;;;18.50;52.43;102057.59;5030899;28;20037;-65
2022/07/02 00:45:58;;;;;;;7.82;4.70;;;;;;;18.49;52.76;102050.41;5029635;28;20037;-65
2022/07/02 00:48:25;;;;;;;6.05;4.45;;;;;;;18.47;52.60;102056.00;5030681;28;20029;-65
2022/07/02 00:50:51;;;;;;;7.72;4.28;;;;;;;18.46;52.30;102053.41;5035869;28;20041;-65
2022/07/02 00:53:19;;;;;;;5.18;4.22;;;;;;;18.45;52.50;102062.56;5050526;28;20068;-65
2022/07/02 00:55:45;;;;;;;7.25;4.78;;;;;;;18.44;52.48;102058.97;5050980;28;20045;-64
2022/07/02 00:58:12;;;;;;;6.57;4.60;;;;;;;18.41;52.33;102060.09;5054539;28;20502;-65
2022/07/02 01:00:38;;;;;;;5.45;4.95;;;;;;;18.40;52.42;102050.22;5050090;28;20552;-65
2022/07/02 01:03:08;;;;;;;7.28;4.72;;;;;;;18.37;52.68;102047.75;5034658;28;20056;-65
2022/07/02 01:05:34;;;;;;;6.72;5.18;;;;;;;18.34;52.39;102045.28;5034332;28;20514;-66
2022/07/02 01:10:52;;;;;;;6.22;4.40;;;;;;;18.26;52.32;102036.91;5037218;28;20060;-65
2022/07/02 01:13:44;;;;;;;7.47;4.68;;;;;;;18.20;52.75;102037.44;5054319;28;20493;-65
2022/07/02 01:16:11;;;;;;;6.97;5.00;;;;;;;18.16;52.31;102032.38;5054288;28;20041;-64
2022/07/02 01:18:37;;;;;;;6.25;4.70;;;;;;;18.12;52.82;102030.91;5054028;28;20048;-65
2022/07/02 01:21:04;;;;;;;6.72;4.40;;;;;;;18.07;52.60;102031.31;5048365;28;20056;-66
2022/07/02 01:23:32;;;;;;;5.10;4.35;;;;;;;18.05;52.65;102039.59;5032782;28;20041;-65
2022/07/02 01:25:58;;;;;;;7.28;4.57;;;;;;;18.04;53.11;102037.00;5034089;28;20061;-65
2022/07/02 01:28:25;;;;;;;9.88;4.93;;;;;;;18.02;53.07;102041.72;5034603;28;20072;-66
2022/07/02 01:30:52;;;;;;;7.85;4.57;;;;;;;17.99;53.18;102039.25;5040256;28;20045;-66
2022/07/02 01:33:18;;;;;;;7.18;4.78;;;;;;;17.98;52.89;102040.22;5053571;28;20522;-65
2022/07/02 01:35:45;;;;;;;6.38;4.57;;;;;;;17.97;53.30;102043.94;5053803;28;20037;-65
2022/07/02 01:38:12;;;;;;;6.50;4.68;;;;;;;17.98;53.12;102037.53;5053742;28;20041;-65
2022/07/02 01:40:38;;;;;;;10.52;5.03;;;;;;;17.98;52.76;102037.53;5048790;28;20029;-66
2022/07/02 01:43:06;;;;;;;7.63;5.30;;;;;;;17.96;53.17;102039.50;5033759;28;20128;-65
2022/07/02 01:45:33;;;;;;;7.53;4.90;;;;;;;17.94;52.92;102038.75;5033222;28;20080;-65
2022/07/02 01:48:00;;;;;;;6.30;4.70;;;;;;;17.90;52.82;102034.56;5033640;28;20048;-66
2022/07/02 01:50:26;;;;;;;7.50;4.95;;;;;;;17.87;53.39;102032.13;5033724;28;20506;-66
2022/07/02 01:52:56;;;;;;;7.03;5.28;;;;;;;17.83;52.76;102042.34;5033923;28;20038;-65
2022/07/02 01:55:24;;;;;;;7.13;4.55;;;;;;;17.78;53.04;102042.72;5033590;28;20049;-66
2022/07/02 01:57:51;;;;;;;8.35;5.13;;;;;;;17.75;53.43;102039.41;5033430;28;20053;-65
2022/07/02 02:00:18;;;;;;;8.02;5.03;;;;;;;17.72;53.17;102036.94;5033871;28;20041;-66
2022/07/02 02:02:47;;;;;;;7.13;4.43;;;;;;;17.67;53.37;102034.59;5051980;28;20051;-66
2022/07/02 02:05:14;;;;;;;6.60;5.50;;;;;;;17.65;53.18;102041.09;5053161;28;20045;-66
2022/07/02 02:07:41;;;;;;;7.57;5.30;;;;;;;17.62;53.27;102035.94;5053030;28;20049;-66
2022/07/02 02:10:08;;;;;;;6.13;4.88;;;;;;;17.61;53.22;102039.63;5051685;28;20041;-66
2022/07/02 02:12:36;;;;;;;9.70;6.05;;;;;;;17.60;53.48;102038.78;5052514;28;20048;-66
2022/07/02 02:15:04;;;;;;;8.73;5.50;;;;;;;17.59;53.36;102036.19;5052911;28;20368;-66
2022/07/02 02:17:31;;;;;;;9.63;5.57;;;;;;;17.58;53.29;102038.03;5053252;28;20060;-65
2022/07/02 02:19:57;;;;;;;6.65;5.22;;;;;;;17.58;53.66;102037.16;5053085;28;20063;-67
2022/07/02 02:22:28;;;;;;;7.95;5.60;;;;;;;17.59;53.45;102041.59;5034986;28;20432;-66
2022/07/02 02:24:54;;;;;;;7.25;4.70;;;;;;;17.58;53.61;102040.75;5033115;28;20068;-66
2022/07/02 02:27:21;;;;;;;6.22;4.75;;;;;;;17.56;53.90;102037.28;5033416;28;20045;-66
2022/07/02 02:29:47;;;;;;;6.38;4.72;;;;;;;17.52;53.77;102043.97;5053000;28;20438;-66
2022/07/02 02:32:14;;;;;;;8.45;4.82;;;;;;;17.51;53.95;102042.25;5033573;28;20506;-66
2022/07/02 02:34:41;;;;;;;6.70;5.00;;;;;;;17.48;53.71;102035.19;5032724;28;20088;-66
2022/07/02 02:37:08;;;;;;;6.55;5.03;;;;;;;17.44;53.45;102035.56;5032746;28;20530;-65
2022/07/02 02:39:35;;;;;;;7.25;4.82;;;;;;;17.40;53.84;102040.38;5032607;28;20034;-65
2022/07/02 02:42:01;;;;;;;5.50;4.78;;;;;;;17.39;53.48;102043.22;5048951;28;20317;-66
2022/07/02 02:44:28;;;;;;;8.45;5.07;;;;;;;17.38;53.77;102038.78;5052124;28;20049;-65
2022/07/02 02:46:54;;;;;;;9.20;5.20;;;;;;;17.36;53.54;102047.06;5051881;28;20052;-65
2022/07/02 02:49:21;;;;;;;8.32;5.13;;;;;;;17.36;53.87;102044.34;5051318;28;20045;-66
2022/07/02 02:51:47;;;;;;;8.40;4.53;;;;;;;17.39;53.65;102040.50;5034815;28;20068;-65
2022/07/02 02:54:14;;;;;;;6.63;5.07;;;;;;;17.40;53.61;102043.09;5032951;28;20049;-65
2022/07/02 02:56:41;;;;;;;5.88;4.95;;;;;;;17.43;53.87;102047.44;5032242;28;20049;-65
2022/07/02 02:59:07;;;;;;;6.55;4.80;;;;;;;17.43;53.52;102045.56;5032338;28;20048;-65
2022/07/02 03:01:34;;;;;;;6.53;4.85;;;;;;;17.43;53.47;102050.16;5046532;28;20051;-64
2022/07/02 03:04:01;;;;;;;6.90;5.07;;;;;;;17.42;53.83;102057.44;5052294;28;20045;-65
2022/07/02 03:06:28;;;;;;;6.88;4.45;;;;;;;17.41;53.63;102050.28;5052042;28;20045;-64
2022/07/02 03:08:54;;;;;;;6.45;4.88;;;;;;;17.38;53.57;102053.22;5052231;28;20045;-65
2022/07/02 03:11:21;;;;;;;6.18;4.90;;;;;;;17.35;53.63;102056.19;5036374;28;20041;-64
2022/07/02 03:13:49;;;;;;;7.63;4.55;;;;;;;17.33;53.69;102063.59;5032151;28;20060;-65
2022/07/02 03:16:15;;;;;;;6.63;4.68;;;;;;;17.33;53.80;102065.44;5032324;28;20041;-64
2022/07/02 03:18:42;;;;;;;6.38;5.22;;;;;;;17.31;53.92;102060.16;5031184;28;20061;-64
2022/07/02 03:21:08;;;;;;;5.72;4.80;;;;;;;17.32;53.81;102061.88;5031998;28;20056;-64
2022/07/02 03:23:36;;;;;;;7.25;5.82;;;;;;;17.32;53.82;102056.44;5031995;28;20046;-64
2022/07/02 03:26:02;;;;;;;10.40;5.40;;;;;;;17.33;53.62;102063.59;5031802;28;20042;-65
2022/07/02 03:28:29;;;;;;;5.45;4.88;;;;;;;17.34;53.89;102062.63;5031711;28;20041;-65
2022/07/02 03:30:56;;;;;;;6.95;4.78;;;;;;;17.33;53.57;102057.31;5043250;28;20053;-64
2022/07/02 03:33:26;;;;;;;7.72;5.20;;;;;;;17.32;53.93;102066.44;5051493;28;20384;-65
2022/07/02 03:35:53;;;;;;;8.38;5.35;;;;;;;17.32;53.64;102066.44;5051777;28;20077;-66
2022/07/02 03:38:19;;;;;;;7.40;5.43;;;;;;;17.31;53.80;102070.13;5051525;28;20060;-66
2022/07/02 03:40:46;;;;;;;6.20;5.60;;;;;;;17.29;53.73;102072.97;5041258;28;20136;-65
2022/07/02 03:43:14;;;;;;;6.45;5.43;;;;;;;17.30;53.93;102071.13;5031508;28;20503;-65
2022/07/02 03:45:41;;;;;;;7.32;5.22;;;;;;;17.29;53.62;102072.13;5031313;28;20049;-66
2022/07/02 03:48:07;;;;;;;7.35;5.57;;;;;;;17.29;53.75;102072.97;5030177;28;20049;-65
2022/07/02 03:50:38;;;;;;;8.30;5.65;;;;;;;17.29;53.59;102072.97;5032033;28;20041;-65
2022/07/02 03:53:09;;;;;;;7.15;5.45;;;;;;;17.29;53.82;102070.25;5031595;28;20392;-65
2022/07/02 03:55:35;;;;;;;7.07;5.25;;;;;;;17.30;54.15;102076.56;5031512;28;20037;-66
2022/07/02 03:58:02;;;;;;;6.05;5.43;;;;;;;17.32;53.98;102071.88;5031262;28;20487;-66
2022/07/02 04:00:29;;;;;;;8.98;6.38;;;;;;;17.33;54.21;102073.59;5037525;28;20506;-66
2022/07/02 04:02:55;;;;;;;6.53;5.80;;;;;;;17.35;54.18;102075.19;5050987;28;20051;-65
2022/07/02 04:05:22;;;;;;;8.27;6.00;;;;;;;17.37;54.50;102083.22;5051362;28;20053;-65
2022/07/02 04:07:48;;;;;;;8.88;6.20;;;;;;;17.40;54.76;102077.56;5038450;28;20046;-65
2022/07/02 04:10:15;;;;;;;7.88;6.47;;;;;;;17.44;54.69;102081.75;5035824;28;20037;-65
2022/07/02 04:12:46;;;;;;;7.35;6.03;;;;;;;17.47;54.64;102076.06;5051658;28;20458;-65
2022/07/02 04:15:12;;;;;;;7.38;6.10;;;;;;;17.50;54.79;102081.25;5050979;28;20069;-66
2022/07/02 04:17:39;;;;;;;8.45;6.07;;;;;;;17.53;54.71;102082.84;5051043;28;20048;-65
2022/07/02 04:20:06;;;;;;;7.45;5.75;;;;;;;17.55;54.92;102087.19;5050376;28;20063;-65
2022/07/02 04:22:35;;;;;;;8.27;6.65;;;;;;;17.58;55.25;102076.06;5050935;28;20052;-66
2022/07/02 04:25:02;;;;;;;6.93;5.65;;;;;;;17.60;54.97;102082.22;5050703;28;20045;-67
2022/07/02 04:27:29;;;;;;;7.55;6.78;;;;;;;17.65;54.75;102085.44;5049019;28;20419;-66
2022/07/02 04:29:55;;;;;;;7.20;6.50;;;;;;;17.69;55.04;102084.22;5049652;28;20041;-66
2022/07/02 04:32:31;;;;;;;8.02;6.30;;;;;;;17.73;55.21;102091.16;5035644;28;20049;-67
2022/07/02 04:34:57;;;;;;;10.15;7.03;;;;;;;17.80;55.34;102086.06;5035121;28;20064;-66
2022/07/02 04:37:24;;;;;;;6.70;6.00;;;;;;;17.82;55.36;102086.81;5035257;28;20041;-66
2022/07/02 04:39:50;;;;;;;9.75;6.38;;;;;;;17.85;55.21;102092.03;5035542;28;20120;-67
2022/07/02 04:42:17;;;;;;;7.55;6.68;;;;;;;17.89;55.32;102088.06;5053514;28;20434;-67
2022/07/02 04:44:51;;;;;;;10.35;6.88;;;;;;;17.94;55.87;102091.28;5055097;28;20048;-66
2022/07/02 04:47:17;;;;;;;8.00;6.95;;;;;;;17.96;55.63;102089.28;5043097;28;20041;-66
2022/07/02 04:49:44;;;;;;;8.68;6.90;;;;;;;18.00;55.76;102090.75;5034758;28;20046;-66
2022/07/02 04:52:10;;;;;;;11.32;7.38;;;;;;;18.01;55.79;102094.34;5035128;28;20038;-65
2022/07/02 04:54:38;;;;;;;11.95;7.85;;;;;;;18.03;55.85;102090.50;5034936;28;20121;-65
2022/07/02 04:57:05;;;;;;;9.27;8.38;;;;;;;18.05;55.54;102090.38;5034524;28;20514;-65
2022/07/02 04:59:32;;;;;;;9.27;7.80;;;;;;;18.08;55.56;102087.41;5035631;28;20404;-65
2022/07/02 05:02:04;;;;;;;10.57;8.25;;;;;;;18.08;56.04;102076.53;5054482;28;20406;-65
2022/07/02 05:04:30;;;;;;;12.18;9.30;;;;;;;18.07;55.98;102082.97;5054566;28;20077;-65
2022/07/02 05:06:57;;;;;;;9.38;8.50;;;;;;;18.10;56.22;102090.88;5054438;28;20041;-65
2022/07/02 05:09:24;;;;;;;9.40;8.48;;;;;;;18.13;55.98;102087.88;5054017;28;20045;-66
2022/07/02 05:11:50;;;;;;;12.30;8.85;;;;;;;18.17;55.86;102083.06;5054088;28;20502;-65
2022/07/02 05:14:17;;;;;;;9.65;8.48;;;;;;;18.21;56.18;102082.69;5054191;28;20495;-66
2022/07/02 05:16:43;;;;;;;9.45;8.30;;;;;;;18.24;56.39;102089.72;5054173;28;20041;-66
2022/07/02 05:19:10;;;;;;;13.07;8.50;;;;;;;18.26;56.14;102077.72;5054306;28;20040;-65
2022/07/02 05:21:37;;;;;;;9.18;7.60;;;;;;;18.29;56.36;102082.03;5051203;28;20052;-64
2022/07/02 05:24:04;;;;;;;9.52;8.27;;;;;;;18.31;56.61;102083.63;5054210;28;20515;-65
2022/07/02 05:26:31;;;;;;;10.27;8.23;;;;;;;18.36;56.42;102075.94;5053854;28;20049;-64
2022/07/02 05:28:58;;;;;;;14.07;7.95;;;;;;;18.43;56.47;102077.16;5054190;28;20045;-65
2022/07/02 05:31:24;;;;;;;13.30;8.77;;;;;;;18.51;56.44;102079.22;5035100;28;20052;-64
2022/07/02 05:33:52;;;;;;;12.02;7.47;;;;;;;18.57;56.52;102083.28;5033964;28;20483;-66
2022/07/02 05:36:19;;;;;;;10.30;7.55;;;;;;;18.64;56.25;102088.13;5034055;28;20044;-65
2022/07/02 05:38:45;;;;;;;11.40;7.50;;;;;;;18.71;56.52;102089.31;5033972;28;20038;-65
2022/07/02 05:41:12;;;;;;;12.07;7.45;;;;;;;18.77;56.82;102093.38;5049679;28;20068;-66
2022/07/02 05:43:39;;;;;;;9.95;6.93;;;;;;;18.83;56.69;102101.00;5051798;28;20057;-65
2022/07/02 05:46:05;;;;;;;10.45;7.80;;;;;;;18.90;56.48;102107.66;5053597;28;20071;-66
2022/07/02 05:48:34;;;;;;;10.45;7.20;;;;;;;18.98;56.71;102107.84;5054193;28;20095;-66
2022/07/02 05:51:01;;;;;;;9.35;7.00;;;;;;;19.07;56.78;102110.78;5051502;28;20052;-66
2022/07/02 05:53:28;;;;;;;8.10;7.10;;;;;;;19.18;56.52;102116.16;5053418;28;20045;-66
2022/07/02 05:55:54;;;;;;;8.82;6.13;;;;;;;19.30;56.77;102110.47;5053320;28;20052;-66
2022/07/02 05:58:21;;;;;;;9.85;6.10;;;;;;;19.44;56.67;102108.44;5053741;28;20037;-66
2022/07/02 06:00:48;;;;;;;6.60;5.07;;;;;;;19.59;56.55;102107.09;5051601;28;20503;-67
2022/07/02 06:03:19;;;;;;;11.18;5.93;;;;;;;19.76;56.77;102108.31;5053303;28;20143;-67
2022/07/02 06:08:31;;;;;;;8.80;5.25;;;;;;;20.14;56.30;102107.59;5053345;28;20047;-67
2022/07/02 06:10:57;;;;;;;5.68;5.05;;;;;;;20.28;56.05;102099.84;5051403;28;20041;-67
2022/07/02 06:13:25;;;;;;;5.85;4.70;;;;;;;20.44;55.48;102106.66;5053331;28;20044;-66
2022/07/02 06:15:52;;;;;;;6.57;4.70;;;;;;;20.61;55.26;102105.94;5052791;28;20057;-66
2022/07/02 06:18:18;;;;;;;8.75;4.93;;;;;;;20.76;55.38;102101.78;5052991;28;20056;-68
2022/07/02 06:20:45;;;;;;;5.15;4.40;;;;;;;20.93;54.80;102094.75;5041829;28;20037;-67
2022/07/02 06:23:12;;;;;;;6.20;4.30;;;;;;;21.07;54.64;102102.47;5033310;28;20073;-66
2022/07/02 06:25:39;;;;;;;5.93;4.35;;;;;;;21.17;54.03;102097.84;5033054;28;20088;-66
2022/07/02 06:28:05;;;;;;;5.60;4.20;;;;;;;21.32;53.68;102100.16;5032948;28;20059;-66
2022/07/02 06:30:32;;;;;;;8.73;4.72;;;;;;;21.47;53.65;102109.59;5033969;28;20522;-66
2022/07/02 06:33:01;;;;;;;8.20;4.25;;;;;;;21.66;53.71;102105.94;5032688;28;20041;-66
2022/07/02 06:35:28;;;;;;;6.82;4.72;;;;;;;21.86;53.28;102111.16;5033298;28;20399;-67
2022/07/02 06:37:55;;;;;;;8.25;4.32;;;;;;;22.05;52.84;102107.50;5032858;28;20128;-66
2022/07/02 06:40:21;;;;;;;5.47;3.85;;;;;;;22.25;52.48;102115.56;5034124;28;20049;-65
2022/07/02 06:42:52;;;;;;;4.85;3.67;;;;;;;22.38;52.34;102127.91;5032747;28;20049;-66
2022/07/02 06:45:19;;;;;;;5.72;3.70;;;;;;;22.56;51.90;102127.91;5032392;28;20058;-66
2022/07/02 06:47:45;;;;;;;3.90;3.50;;;;;;;22.72;51.50;102124.47;5032631;28;20037;-69
2022/07/02 06:50:12;;;;;;;4.40;3.38;;;;;;;22.83;50.86;102127.00;5033711;28;20054;-67
2022/07/02 06:52:45;;;;;;;8.00;3.13;;;;;;;22.98;50.65;102124.53;5032523;28;20085;-68
2022/07/02 06:55:12;;;;;;;3.83;3.03;;;;;;;23.13;50.49;102123.84;5031694;28;20045;-68
2022/07/02 06:57:39;;;;;;;5.60;2.90;;;;;;;23.22;49.87;102119.28;5032193;28;20033;-67
2022/07/02 07:00:06;;;;;;;8.13;3.60;;;;;;;23.30;49.50;102113.84;5033250;28;20050;-68
2022/07/02 07:02:35;;;;;;;4.95;2.38;;;;;;;23.36;49.11;102115.06;5032493;28;20037;-67
2022/07/02 07:05:02;;;;;;;3.80;2.70;;;;;;;23.43;48.94;102116.16;5030800;28;20416;-67
2022/07/02 07:07:30;;;;;;;4.28;1.70;;;;;;;23.50;48.16;102111.75;5032426;28;20040;-68
2022/07/02 07:09:57;;;;;;;4.85;2.05;;;;;;;23.54;47.64;102118.63;5032959;28;20060;-67
2022/07/02 07:12:25;;;;;;;3.03;1.27;;;;;;;23.54;47.43;102118.63;5032330;28;20352;-68
2022/07/02 07:15:06;;;;;;;2.20;1.02;;;;;;;23.63;47.31;102120.41;5069203;28;20398;-67
2022/07/02 07:17:33;;;;;;;2.20;1.10;;;;;;;23.77;46.68;102113.44;5068471;28;20135;-67
2022/07/02 07:20:00;;;;;;;2.80;1.55;;;;;;;23.88;46.49;102118.66;5068679;28;20142;-68
2022/07/02 07:22:30;;;;;;;10.73;1.40;;;;;;;24.09;46.14;102112.75;5069121;28;20037;-67
2022/07/02 07:24:56;;;;;;;6.15;1.42;;;;;;;24.28;45.57;102112.47;5068860;28;20045;-68
2022/07/02 07:27:23;;;;;;;2.83;1.42;;;;;;;24.39;44.70;102117.66;5068102;28;20040;-65
2022/07/02 07:29:49;;;;;;;3.47;1.50;;;;;;;24.48;44.62;102115.78;5069177;28;20051;-68
2022/07/02 07:32:16;;;;;;;2.28;1.30;;;;;;;24.56;44.13;102115.81;5068684;28;20495;-66
2022/07/02 07:34:43;;;;;;;4.13;1.60;;;;;;;24.69;44.08;102115.31;5067493;28;20053;-66
2022/07/02 07:37:11;;;;;;;3.65;1.40;;;;;;;24.81;43.63;102119.44;5067420;28;20513;-66
2022/07/02 07:39:38;;;;;;;2.70;1.50;;;;;;;24.89;43.13;102121.34;5068630;28;20033;-67
2022/07/02 07:42:05;;;;;;;4.78;1.60;;;;;;;24.96;42.96;102119.63;5068242;28;20047;-67
2022/07/02 07:44:32;;;;;;;5.35;1.67;;;;;;;24.98;42.54;102115.69;5067955;28;20069;-67
2022/07/02 07:46:58;;;;;;;3.08;0.80;;;;;;;25.02;42.09;102106.06;5067895;28;20047;-66
2022/07/02 07:49:25;;;;;;;2.25;0.73;;;;;;;25.18;42.43;102115.31;5067939;28;20477;-67
2022/07/02 07:51:52;;;;;;;2.05;0.93;;;;;;;25.38;42.22;102113.94;5067674;28;20051;-67
2022/07/02 07:54:18;;;;;;;2.70;1.20;;;;;;;25.49;41.74;102115.47;5067745;28;20037;-67
2022/07/02 07:56:45;;;;;;;2.05;0.80;;;;;;;25.63;41.39;102117.50;5067485;28;20051;-66
2022/07/02 07:59:11;;;;;;;2.03;0.77;;;;;;;25.73;41.72;102117.31;5067765;28;20036;-67
2022/07/02 08:01:38;;;;;;;2.78;0.90;;;;;;;25.82;41.15;102119.00;5067438;28;20045;-67
2022/07/02 08:04:06;;;;;;;2.53;0.80;;;;;;;25.84;40.76;102105.91;5067741;28;20128;-67
2022/07/02 08:06:32;;;;;;;3.03;1.27;;;;;;;25.92;40.42;102105.88;5067158;28;20048;-66
2022/07/02 08:08:59;;;;;;;2.00;0.80;;;;;;;25.95;40.28;102098.13;5067630;28;20049;-66
2022/07/02 08:11:26;;;;;;;2.13;1.15;;;;;;;26.03;39.91;102093.66;5067717;28;20036;-67
2022/07/02 08:13:54;;;;;;;2.95;0.95;;;;;;;26.19;40.18;102099.06;5067797;28;20041;-67
2022/07/02 08:16:21;;;;;;;2.97;1.25;;;;;;;26.35;39.84;102096.22;5066062;28;20033;-67
2022/07/02 08:18:47;;;;;;;3.38;1.42;;;;;;;26.47;40.03;102097.53;5067625;28;20110;-67
2022/07/02 08:21:14;;;;;;;5.75;1.48;;;;;;;26.54;39.47;102092.13;5067593;28;20056;-68
2022/07/02 08:23:42;;;;;;;3.85;1.15;;;;;;;26.54;39.17;102100.41;5067283;28;20083;-67
2022/07/02 08:26:08;;;;;;;3.80;1.10;;;;;;;26.61;39.25;102095.88;5055063;28;20403;-67
2022/07/02 08:28:35;;;;;;;2.33;1.10;;;;;;;26.70;39.15;102089.25;5054034;28;20505;-67
2022/07/02 08:31:02;;;;;;;3.55;1.02;;;;;;;26.81;39.34;102096.25;5054446;28;20111;-68
2022/07/02 08:33:31;;;;;;;3.05;0.80;;;;;;;26.96;39.10;102090.78;5053963;28;20506;-67
2022/07/02 08:35:58;;;;;;;4.43;0.90;;;;;;;27.04;39.31;102093.50;5053804;28;20049;-68
2022/07/02 08:38:25;;;;;;;3.00;1.02;;;;;;;27.11;39.06;102087.03;5054219;28;20048;-67
2022/07/02 08:40:51;;;;;;;3.05;1.20;;;;;;;27.22;38.86;102085.72;5054096;28;20041;-67
2022/07/02 08:43:26;;;;;;;3.53;1.00;;;;;;;27.34;38.82;102086.97;5053461;28;20088;-67
2022/07/02 08:45:54;;;;;;;3.27;0.87;;;;;;;27.44;38.71;102078.41;5053778;28;20040;-67
2022/07/02 08:48:22;;;;;;;2.97;1.15;;;;;;;27.57;38.40;102078.63;5054074;28;20053;-68
2022/07/02 08:50:49;;;;;;;2.78;1.40;;;;;;;27.54;38.09;102076.25;5054923;28;20037;-67
2022/07/02 08:53:17;;;;;;;4.80;1.55;;;;;;;27.57;38.35;102075.88;5054617;28;20056;-67
2022/07/02 08:55:45;;;;;;;1.88;0.90;;;;;;;27.66;38.28;102085.78;5054856;28;20056;-67
2022/07/02 08:58:12;;;;;;;2.45;1.00;;;;;;;27.77;38.08;102076.16;5054731;28;20048;-67
2022/07/02 09:00:40;;;;;;;5.35;1.10;;;;;;;27.89;37.89;102082.06;5053411;28;20043;-67
2022/07/02 09:03:13;;;;;;;2.90;1.10;;;;;;;27.91;37.40;102080.81;5054362;28;20055;-66
2022/07/02 09:05:42;;;;;;;3.53;1.17;;;;;;;27.92;37.27;102076.16;5034897;28;20587;-67
2022/07/02 09:08:15;;;;;;;4.78;1.20;;;;;;;27.95;37.27;102084.03;5034650;28;20499;-68
2022/07/02 09:10:42;;;;;;;2.63;1.00;;;;;;;28.05;37.34;102066.13;5034735;28;20045;-68
2022/07/02 09:13:14;;;;;;;2.97;1.10;;;;;;;28.18;37.32;102065.41;5035448;28;20045;-68
2022/07/02 09:15:41;;;;;;;4.45;1.13;;;;;;;28.27;37.46;102068.97;5039438;28;20402;-68
2022/07/02 09:18:08;;;;;;;3.22;1.15;;;;;;;28.39;37.28;102062.72;5054288;28;20041;-67
2022/07/02 09:20:34;;;;;;;3.20;0.98;;;;;;;28.49;37.20;102062.41;5054561;28;20056;-67
2022/07/02 09:23:09;;;;;;;3.97;1.35;;;;;;;28.62;37.03;102056.13;5053921;28;20051;-67
2022/07/02 09:25:36;;;;;;;2.17;1.05;;;;;;;28.72;36.97;102059.41;5054112;28;20039;-68
2022/07/02 09:28:04;;;;;;;4.28;1.10;;;;;;;28.75;36.99;102051.56;5052655;28;20491;-68
2022/07/02 09:30:34;;;;;;;2.55;1.00;;;;;;;28.76;36.72;102049.66;5053933;28;20059;-68
2022/07/02 09:33:36;;;;;;;3.40;1.60;;;;;;;28.76;36.08;102044.13;5052597;28;20415;-70
2022/07/02 09:36:11;;;;;;;3.38;1.15;;;;;;;28.71;35.92;102041.97;5033161;28;20171;-69
2022/07/02 09:38:46;;;;;;;2.70;1.15;;;;;;;28.67;36.07;102037.03;5033293;28;20038;-69
2022/07/02 09:41:15;;;;;;;2.70;1.38;;;;;;;28.73;36.26;102039.00;5033738;28;20060;-68
2022/07/02 09:43:52;;;;;;;2.85;1.10;;;;;;;28.76;36.45;102028.41;5037611;28;20049;-69
2022/07/02 09:46:20;;;;;;;3.25;1.13;;;;;;;28.90;36.57;102032.16;5052694;28;20057;-69
2022/07/02 09:48:48;;;;;;;5.22;1.67;;;;;;;29.01;36.39;102028.88;5052205;28;20044;-69
2022/07/02 09:51:15;;;;;;;4.90;1.85;;;;;;;29.00;36.09;102029.94;5052625;28;20041;-68
2022/07/02 09:54:01;;;;;;;4.13;1.33;;;;;;;29.02;36.25;102036.13;5052349;28;20052;-70
2022/07/02 09:56:27;;;;;;;;;;;;;;;29.10;36.39;102021.28;5052726;28;20037;-69
2022/07/02 09:58:54;;;;;;;2.78;1.63;;;;;;;29.17;36.39;102016.63;5052017;28;19928;-69
2022/07/02 10:01:21;;;;;;;4.70;1.60;;;;;;;29.21;36.09;102017.09;5052804;28;20047;-68
2022/07/02 10:03:52;;;;;;;7.38;1.65;;;;;;;29.22;35.97;102014.09;5052654;28;20095;-68
2022/07/02 10:06:19;;;;;;;4.25;2.00;;;;;;;29.27;35.99;102011.59;5052312;28;20048;-68
2022/07/02 10:08:55;;;;;;;3.13;1.80;;;;;;;29.34;35.69;102017.16;5051603;28;20598;-69
2022/07/02 10:11:22;;;;;;;4.20;1.70;;;;;;;29.40;35.38;102011.66;5052138;28;20037;-69
2022/07/02 10:13:49;;;;;;;4.05;1.55;;;;;;;29.50;35.61;102018.75;5051990;28;20041;-69
2022/07/02 10:16:17;;;;;;;1.90;1.17;;;;;;;29.66;35.34;102010.94;5052098;28;20045;-69
2022/07/02 10:18:44;;;;;;;3.25;0.95;;;;;;;29.85;35.03;102003.81;5051449;28;20045;-68
2022/07/02 10:21:13;;;;;;;2.38;0.80;;;;;;;29.93;34.55;102000.00;5052010;28;20052;-69
2022/07/02 10:23:45;;;;;;;4.28;1.20;;;;;;;29.94;33.83;102004.47;5052034;28;20048;-68
2022/07/02 10:26:13;;;;;;;3.05;0.85;;;;;;;29.98;33.87;101997.44;5051853;28;20059;-69
2022/07/02 10:28:39;;;;;;;3.72;1.10;;;;;;;30.06;34.14;101994.53;5051308;28;20051;-69
2022/07/02 10:31:11;;;;;;;3.70;1.33;;;;;;;30.10;34.08;101989.41;5051857;28;20041;-69
2022/07/02 10:34:22;;;;;;;3.22;1.33;;;;;;;30.02;34.09;101987.69;5051850;28;20048;-70
2022/07/02 10:36:49;;;;;;;4.80;1.60;;;;;;;29.95;34.46;101992.34;5050441;28;20049;-69
2022/07/02 10:39:16;;;;;;;2.63;1.00;;;;;;;29.88;34.19;101983.16;5051547;28;20037;-70
2022/07/02 10:41:43;;;;;;;3.25;1.02;;;;;;;29.83;34.20;101974.63;5051860;28;20067;-70
2022/07/02 10:44:11;;;;;;;3.33;1.00;;;;;;;29.87;34.08;101981.44;5051787;28;20045;-70
2022/07/02 10:46:39;;;;;;;3.22;0.90;;;;;;;29.90;33.75;101978.25;5051833;28;20312;-70
2022/07/02 10:49:06;;;;;;;1.40;0.82;;;;;;;30.00;33.91;101975.94;5050780;28;20648;-70
2022/07/02 10:51:35;;;;;;;2.00;0.70;;;;;;;30.09;34.07;101977.47;5051986;28;20045;-69
2022/07/02 10:54:06;;;;;;;2.28;0.90;;;;;;;30.20;34.38;101982.41;5051632;28;20479;-69
2022/07/02 10:56:49;;;;;;;2.22;0.80;;;;;;;30.27;33.73;101974.09;5051387;28;20041;-69
2022/07/02 10:59:35;;;;;;;3.03;0.98;;;;;;;30.32;33.72;101977.06;5051246;28;20037;-69
2022/07/02 11:02:07;;;;;;;3.67;1.52;;;;;;;30.25;33.32;101987.31;5051250;28;20049;-71
2022/07/02 11:04:34;;;;;;;2.65;0.80;;;;;;;30.12;33.13;101987.28;5051322;28;20053;-70
2022/07/02 11:07:11;;;;;;;3.10;1.25;;;;;;;30.02;33.17;101979.38;5051450;28;20064;-70
2022/07/02 11:09:57;;;;;;;2.67;0.80;;;;;;;30.00;32.87;101967.63;5051183;28;20041;-69
2022/07/02 11:12:55;;;;;;;3.47;0.80;;;;;;;30.01;33.24;101975.75;5051175;28;20493;-69
2022/07/02 11:15:33;;;;;;;3.20;0.90;;;;;;;30.06;33.36;101977.03;5049002;28;20072;-69
2022/07/02 11:18:03;;;;;;;2.45;0.80;;;;;;;29.95;33.11;101964.63;5051133;28;20037;-68
2022/07/02 11:20:34;;;;;;;2.42;0.68;;;;;;;29.85;33.19;101970.56;5051153;28;20075;-69
2022/07/02 11:23:01;;;;;;;2.10;1.00;;;;;;;29.75;32.88;101967.34;5051156;28;20041;-69
2022/07/02 11:25:30;;;;;;;2.97;0.80;;;;;;;29.64;32.85;101962.38;5051187;28;20041;-68
2022/07/02 11:28:02;;;;;;;2.30;0.70;;;;;;;29.56;32.90;101955.13;5051046;28;20041;-69
2022/07/02 11:30:31;;;;;;;2.90;0.60;;;;;;;29.63;33.17;101958.75;5050682;28;20040;-69
2022/07/02 11:32:58;;;;;;;1.20;0.43;;;;;;;29.70;32.96;101956.00;5050852;28;20483;-68
2022/07/02 11:35:25;;;;;;;1.83;0.70;;;;;;;29.71;32.93;101963.25;5049609;28;20064;-68